This is the latest recevied weather packets stored in our database for station/object SP2CDN-10. If no packets are shown the sender has not sent any weather packets the latest 10 day(s).
| Time | Temp. | Humidity | Pressure | Rain* | Wind** | Luminosity | Snow |
|---|---|---|---|---|---|---|---|
| 1777899461 | 25° C | 32% | 1009.7 hPa | - | - | - | - |
| 1777897180 | 27.22° C | 28% | 1009.8 hPa | - | - | - | - |
| 1777894898 | 25.56° C | 30% | 1009.8 hPa | - | - | - | - |
| 1777892617 | 26.67° C | 29% | 1010 hPa | - | - | - | - |
| 1777890335 | 23.89° C | 32% | 1010.2 hPa | - | - | - | - |
| 1777888053 | 27.78° C | 25% | 1010.2 hPa | - | - | - | - |
| 1777885771 | 25° C | 29% | 1010.3 hPa | - | - | - | - |
| 1777883490 | 25° C | 29% | 1010.2 hPa | - | - | - | - |
| 1777881208 | 23.89° C | 31% | 1010 hPa | - | - | - | - |
| 1777878927 | 21.67° C | 35% | 1010.1 hPa | - | - | - | - |
| 1777876645 | 19.44° C | 38% | 1009.8 hPa | - | - | - | - |
| 1777874364 | 18.33° C | 40% | 1009.8 hPa | - | - | - | - |
| 1777872082 | 16.67° C | 43% | 1009.6 hPa | - | - | - | - |
| 1777869801 | 15.56° C | 46% | 1009.5 hPa | - | - | - | - |
| 1777867519 | 14.44° C | 50% | 1009.4 hPa | - | - | - | - |
| 1777865237 | 14.44° C | 51% | 1009.5 hPa | - | - | - | - |
| 1777862955 | 14.44° C | 49% | 1009.6 hPa | - | - | - | - |
| 1777860674 | 14.44° C | 49% | 1009.5 hPa | - | - | - | - |
| 1777858395 | 15.56° C | 44% | 1009.5 hPa | - | - | - | - |
| 1777856111 | 16.11° C | 42% | 1009.5 hPa | - | - | - | - |
| 1777853829 | 16.67° C | 40% | 1009.5 hPa | - | - | - | - |
| 1777851547 | 16.67° C | 38% | 1009.6 hPa | - | - | - | - |
| 1777849266 | 17.22° C | 36% | 1009.7 hPa | - | - | - | - |
| 1777846984 | 16.67° C | 36% | 1009.8 hPa | - | - | - | - |
| 1777844703 | 17.22° C | 34% | 1010 hPa | - | - | - | - |
* Rain since midnight (hover to see other rain measurements)
** Current wind speed in m/s (hover to see current wind gust speed)